Global Wisdom — V7NI9 — position and weather

sailwx.info

Track history (hours):
 
Tides and Currents Weather Stations Pressure Air Temp Water Temp Dewpoint Dewpoint Depression Visibility Wind Speed Wind Dir Waves Ship Positions

Global Wisdom

Last reported at 2018-Feb-22 11:11 UTC. Time now 2018-Feb-25 23:58 UTC.
Position N 41°19' E 140°13'.

Length 175 m; draft 7.1 m.

Type: Cargo ship. MMSI: 538006462.

Date/timePositionNaut miles runAvg speedWind from/ knotsBaromVisibWave heightAir tempDewpointWater temp
2018-Feb-22 11:11N 41°19' E 140°13'1 8.4
2018-Feb-22 11:00N 41°20' E 140°15'4 7.7
2018-Feb-22 10:30N 41°22' E 140°19'5 9.3
2018-Feb-22 09:58N 41°25' E 140°24'510.2
2018-Feb-22 09:30N 41°28' E 140°29'4 8.7
2018-Feb-22 09:00N 41°30' E 140°34'510.6
2018-Feb-22 08:30N 41°33' E 140°40'613.0
2018-Feb-22 08:00N 41°37' E 140°47'510.6
2018-Feb-22 07:30N 41°39' E 140°54'511.0
2018-Feb-22 07:00N 41°37' E 141°01'510.7
2018-Feb-22 06:30N 41°36' E 141°08'510.7
2018-Feb-22 06:00N 41°35' E 141°15'510.3
2018-Feb-22 05:30N 41°34' E 141°22'510.6
2018-Feb-22 05:00N 41°32' E 141°28'610.6
2018-Feb-22 04:28N 41°29' E 141°35'  
2018-Feb-15 19:19N 34°56' E 140°17'610.7
2018-Feb-15 18:48N 34°52' E 140°11'5 9.8
2018-Feb-15 18:20N 34°50' E 140°07'2811.1
2018-Feb-15 15:48N 34°38' E 139°36'311.6
2018-Feb-15 15:31N 34°37' E 139°32'611.2
2018-Feb-15 15:00N 34°35' E 139°25'712.7
2018-Feb-15 14:29N 34°35' E 139°17'613.1
2018-Feb-15 14:00N 34°34' E 139°10'612.7
2018-Feb-15 13:30N 34°31' E 139°03'713.5
2018-Feb-15 13:00N 34°30' E 138°55'613.0
2018-Feb-15 12:30N 34°30' E 138°47'813.0
2018-Feb-15 11:54N 34°30' E 138°38'512.4
2018-Feb-15 11:30N 34°30' E 138°32'612.3
2018-Feb-15 11:00N 34°30' E 138°24'712.6
2018-Feb-15 10:28N 34°30' E 138°16'612.9
2018-Feb-15 09:59N 34°29' E 138°08'612.2
2018-Feb-15 09:30N 34°29' E 138°01'611.5
2018-Feb-15 08:59N 34°29' E 137°54'510.8
2018-Feb-15 08:30N 34°29' E 137°48'2811.0
2018-Feb-15 06:00N 34°29' E 137°14'1310.1
2018-Feb-15 04:42N 34°34' E 136°59'211.1
2018-Feb-15 04:30N 34°36' E 136°57'612.4
2018-Feb-15 04:00N 34°39' E 136°51'713.3
2018-Feb-15 03:30N 34°45' E 136°47'713.6
2018-Feb-15 03:00N 34°51' E 136°44'612.1
2018-Feb-15 02:30N 34°57' E 136°41'2 4.0
2018-Feb-15 02:00N 34°57' E 136°39'0 0.0
2018-Feb-15 01:24N 34°57' E 136°39'0 0.0
2018-Feb-15 01:00N 34°57' E 136°39'0 0.0
2018-Feb-15 00:30N 34°57' E 136°39'0 0.0
2018-Feb-15 00:00N 34°57' E 136°39'0 0.0
2018-Feb-14 23:27N 34°57' E 136°39'0 0.0
2018-Feb-14 23:00N 34°57' E 136°39'0 0.0
2018-Feb-14 22:30N 34°57' E 136°39'0 0.0
2018-Feb-14 22:00N 34°57' E 136°39'0 0.0
2018-Feb-14 21:30N 34°57' E 136°39'0 0.0
2018-Feb-14 21:00N 34°57' E 136°39'0 0.0
2018-Feb-14 20:30N 34°57' E 136°39'0 0.0
2018-Feb-14 20:00N 34°57' E 136°39'0 0.0
2018-Feb-14 19:30N 34°57' E 136°39'0 0.0
2018-Feb-14 19:00N 34°57' E 136°39'0 0.0
2018-Feb-14 18:30N 34°57' E 136°39'0 0.0
2018-Feb-14 18:00N 34°57' E 136°39'0 0.0
2018-Feb-14 17:30N 34°57' E 136°39'0 0.0
2018-Feb-14 17:00N 34°57' E 136°39'0 0.0
2018-Feb-14 16:30N 34°57' E 136°39'0 0.0
2018-Feb-14 16:00N 34°57' E 136°39'0 0.0
2018-Feb-14 15:30N 34°57' E 136°39'0 0.0
2018-Feb-14 15:00N 34°57' E 136°39'0 0.0
2018-Feb-14 14:30N 34°57' E 136°39'0 0.0
2018-Feb-14 14:00N 34°57' E 136°39'0 0.0
2018-Feb-14 13:30N 34°57' E 136°39'0 0.0
2018-Feb-14 13:00N 34°57' E 136°39'0 0.0
2018-Feb-14 12:30N 34°57' E 136°39'0 0.0
2018-Feb-14 12:00N 34°57' E 136°39'0 0.0
2018-Feb-14 11:30N 34°57' E 136°39'0 0.0
2018-Feb-14 11:00N 34°57' E 136°39'0 0.0
2018-Feb-14 10:30N 34°57' E 136°39'0 0.0
2018-Feb-14 10:00N 34°57' E 136°39'0 0.0
2018-Feb-14 09:30N 34°57' E 136°39'0 0.0
2018-Feb-14 08:54N 34°57' E 136°39'0 0.0
2018-Feb-14 08:30N 34°57' E 136°39'0 0.0
2018-Feb-14 07:54N 34°57' E 136°39'0 0.0
2018-Feb-14 07:30N 34°57' E 136°39'0 0.0
2018-Feb-14 07:00N 34°57' E 136°39'0 0.0
2018-Feb-14 06:30N 34°57' E 136°39'0 0.0
2018-Feb-14 06:00N 34°57' E 136°39'0 0.0
2018-Feb-14 05:30N 34°57' E 136°39'0 0.0
2018-Feb-14 05:00N 34°57' E 136°39'0 0.0
2018-Feb-14 04:30N 34°57' E 136°39'0 0.0
2018-Feb-14 04:00N 34°57' E 136°39'0 0.0
2018-Feb-14 03:30N 34°57' E 136°39'0 0.0
2018-Feb-14 03:00N 34°57' E 136°39'0 0.0
2018-Feb-14 02:30N 34°57' E 136°39'0 0.0
2018-Feb-14 02:00N 34°57' E 136°39'0 0.0
2018-Feb-14 01:27N 34°57' E 136°39'0 0.0
2018-Feb-14 01:00N 34°57' E 136°39'0 0.0
2018-Feb-14 00:30N 34°57' E 136°39'0 0.0
2018-Feb-14 00:00N 34°57' E 136°39'0 0.0
2018-Feb-13 23:30N 34°57' E 136°39'0 0.0
2018-Feb-13 23:00N 34°57' E 136°39'0 0.0
2018-Feb-13 22:30N 34°57' E 136°39'0 0.0
2018-Feb-13 22:00N 34°57' E 136°39'0 0.0
2018-Feb-13 21:30N 34°57' E 136°39'0 0.0
2018-Feb-13 21:00N 34°57' E 136°39'0 0.0
2018-Feb-13 20:30N 34°57' E 136°39'0 0.0
2018-Feb-13 20:00N 34°57' E 136°39'0 0.0
2018-Feb-13 19:30N 34°57' E 136°39'0 0.0
2018-Feb-13 19:00N 34°57' E 136°39'0 0.0
2018-Feb-13 18:30N 34°57' E 136°39'0 0.0
2018-Feb-13 18:00N 34°57' E 136°39'0 0.0
2018-Feb-13 17:30N 34°57' E 136°39'0 0.0
2018-Feb-13 17:00N 34°57' E 136°39'0 0.0
2018-Feb-13 16:30N 34°57' E 136°39'0 0.0
2018-Feb-13 16:00N 34°57' E 136°39'0 0.0
2018-Feb-13 15:30N 34°57' E 136°39'0 0.0
2018-Feb-13 15:00N 34°57' E 136°39'0 0.0
2018-Feb-13 14:30N 34°57' E 136°39'0 0.0
2018-Feb-13 14:00N 34°57' E 136°39'0 0.0
2018-Feb-13 13:30N 34°57' E 136°39'0 0.0
2018-Feb-13 13:00N 34°57' E 136°39'0 0.0
2018-Feb-13 12:30N 34°57' E 136°39'0 0.0
2018-Feb-13 12:00N 34°57' E 136°39'0 0.0
2018-Feb-13 11:30N 34°57' E 136°39'0 0.0
2018-Feb-13 11:00N 34°57' E 136°39'0 0.0
2018-Feb-13 10:30N 34°57' E 136°39'0 0.0
2018-Feb-13 10:00N 34°57' E 136°39'0 0.0
2018-Feb-13 09:30N 34°57' E 136°39'0 0.0
2018-Feb-13 09:00N 34°57' E 136°39'0 0.0
2018-Feb-13 08:30N 34°57' E 136°39'0 0.0
2018-Feb-13 08:00N 34°57' E 136°39'0 0.0
2018-Feb-13 07:30N 34°57' E 136°39'0 0.0
2018-Feb-13 07:00N 34°57' E 136°39'0 0.0
2018-Feb-13 06:27N 34°57' E 136°39'0 0.0
2018-Feb-13 06:00N 34°57' E 136°39'0 0.0
2018-Feb-13 05:30N 34°57' E 136°39'0 0.0
2018-Feb-13 05:00N 34°57' E 136°39'0 0.0
2018-Feb-13 04:27N 34°57' E 136°39'0 0.0
2018-Feb-13 04:00N 34°57' E 136°39'0 0.0
2018-Feb-13 03:30N 34°57' E 136°39'0 0.0
2018-Feb-13 03:00N 34°57' E 136°39'0 0.0
2018-Feb-13 02:30N 34°57' E 136°39'0 0.0
2018-Feb-13 02:00N 34°57' E 136°39'0 0.0
2018-Feb-13 01:30N 34°57' E 136°39'0 0.0
2018-Feb-13 01:00N 34°57' E 136°39'0 0.0
2018-Feb-13 00:30N 34°57' E 136°39'0 0.0
2018-Feb-13 00:00N 34°57' E 136°39'0 0.0
2018-Feb-12 23:30N 34°57' E 136°39'0 0.0
2018-Feb-12 23:00N 34°57' E 136°39'0 0.0
2018-Feb-12 22:30N 34°57' E 136°39'0 0.0
2018-Feb-12 22:00N 34°57' E 136°39'0 0.0
2018-Feb-12 21:30N 34°57' E 136°39'0 0.0
2018-Feb-12 21:00N 34°57' E 136°39'0 0.0
2018-Feb-12 20:30N 34°57' E 136°39'0 0.0
2018-Feb-12 20:00N 34°57' E 136°39'0 0.0
2018-Feb-12 19:30N 34°57' E 136°39'0 0.0
2018-Feb-12 19:00N 34°57' E 136°39'0 0.0
2018-Feb-12 18:30N 34°57' E 136°39'0 0.0
2018-Feb-12 18:00N 34°57' E 136°39'0 0.0
2018-Feb-12 17:30N 34°57' E 136°39'0 0.0
2018-Feb-12 17:00N 34°57' E 136°39'0 0.0
2018-Feb-12 16:30N 34°57' E 136°39'0 0.0
2018-Feb-12 16:00N 34°57' E 136°39'0 0.0
2018-Feb-12 15:18N 34°57' E 136°39'0 0.0
2018-Feb-12 15:00N 34°57' E 136°39'0 0.0
2018-Feb-12 14:30N 34°57' E 136°39'0 0.0
2018-Feb-12 14:00N 34°57' E 136°39'0 0.0
2018-Feb-12 13:30N 34°57' E 136°39'0 0.0
2018-Feb-12 13:00N 34°57' E 136°39'0 0.0
2018-Feb-12 12:30N 34°57' E 136°39'0 0.0
2018-Feb-12 12:00N 34°57' E 136°39'0 0.0
2018-Feb-12 11:27N 34°57' E 136°39'  
Track history (hours):
 
Tides and Currents Weather Stations Pressure Air Temp Water Temp Dewpoint Dewpoint Depression Visibility Wind Speed Wind Dir Waves Ship Positions

Global Wisdom

Last reported at 2018-Feb-22 11:11 UTC. Time now 2018-Feb-25 23:58 UTC.
Position N 41°19' E 140°13'.

Length 175 m; draft 7.1 m.

Type: Cargo ship. MMSI: 538006462.

Date/timePositionNaut miles runAvg speedWind from/ knotsBaromVisibWave heightAir tempDewpointWater temp
2018-Feb-22 11:11N 41°19' E 140°13'1 8.4
2018-Feb-22 11:00N 41°20' E 140°15'4 7.7
2018-Feb-22 10:30N 41°22' E 140°19'5 9.3
2018-Feb-22 09:58N 41°25' E 140°24'510.2
2018-Feb-22 09:30N 41°28' E 140°29'4 8.7
2018-Feb-22 09:00N 41°30' E 140°34'510.6
2018-Feb-22 08:30N 41°33' E 140°40'613.0
2018-Feb-22 08:00N 41°37' E 140°47'510.6
2018-Feb-22 07:30N 41°39' E 140°54'511.0
2018-Feb-22 07:00N 41°37' E 141°01'510.7
2018-Feb-22 06:30N 41°36' E 141°08'510.7
2018-Feb-22 06:00N 41°35' E 141°15'510.3
2018-Feb-22 05:30N 41°34' E 141°22'510.6
2018-Feb-22 05:00N 41°32' E 141°28'610.6
2018-Feb-22 04:28N 41°29' E 141°35'  
2018-Feb-15 19:19N 34°56' E 140°17'610.7
2018-Feb-15 18:48N 34°52' E 140°11'5 9.8
2018-Feb-15 18:20N 34°50' E 140°07'2811.1
2018-Feb-15 15:48N 34°38' E 139°36'311.6
2018-Feb-15 15:31N 34°37' E 139°32'611.2
2018-Feb-15 15:00N 34°35' E 139°25'712.7
2018-Feb-15 14:29N 34°35' E 139°17'613.1
2018-Feb-15 14:00N 34°34' E 139°10'612.7
2018-Feb-15 13:30N 34°31' E 139°03'713.5
2018-Feb-15 13:00N 34°30' E 138°55'613.0
2018-Feb-15 12:30N 34°30' E 138°47'813.0
2018-Feb-15 11:54N 34°30' E 138°38'512.4
2018-Feb-15 11:30N 34°30' E 138°32'612.3
2018-Feb-15 11:00N 34°30' E 138°24'712.6
2018-Feb-15 10:28N 34°30' E 138°16'612.9
2018-Feb-15 09:59N 34°29' E 138°08'612.2
2018-Feb-15 09:30N 34°29' E 138°01'611.5
2018-Feb-15 08:59N 34°29' E 137°54'510.8
2018-Feb-15 08:30N 34°29' E 137°48'2811.0
2018-Feb-15 06:00N 34°29' E 137°14'1310.1
2018-Feb-15 04:42N 34°34' E 136°59'211.1
2018-Feb-15 04:30N 34°36' E 136°57'612.4
2018-Feb-15 04:00N 34°39' E 136°51'713.3
2018-Feb-15 03:30N 34°45' E 136°47'713.6
2018-Feb-15 03:00N 34°51' E 136°44'612.1
2018-Feb-15 02:30N 34°57' E 136°41'2 4.0
2018-Feb-15 02:00N 34°57' E 136°39'0 0.0
2018-Feb-15 01:24N 34°57' E 136°39'0 0.0
2018-Feb-15 01:00N 34°57' E 136°39'0 0.0
2018-Feb-15 00:30N 34°57' E 136°39'0 0.0
2018-Feb-15 00:00N 34°57' E 136°39'0 0.0
2018-Feb-14 23:27N 34°57' E 136°39'0 0.0
2018-Feb-14 23:00N 34°57' E 136°39'0 0.0
2018-Feb-14 22:30N 34°57' E 136°39'0 0.0
2018-Feb-14 22:00N 34°57' E 136°39'0 0.0
2018-Feb-14 21:30N 34°57' E 136°39'0 0.0
2018-Feb-14 21:00N 34°57' E 136°39'0 0.0
2018-Feb-14 20:30N 34°57' E 136°39'0 0.0
2018-Feb-14 20:00N 34°57' E 136°39'0 0.0
2018-Feb-14 19:30N 34°57' E 136°39'0 0.0
2018-Feb-14 19:00N 34°57' E 136°39'0 0.0
2018-Feb-14 18:30N 34°57' E 136°39'0 0.0
2018-Feb-14 18:00N 34°57' E 136°39'0 0.0
2018-Feb-14 17:30N 34°57' E 136°39'0 0.0
2018-Feb-14 17:00N 34°57' E 136°39'0 0.0
2018-Feb-14 16:30N 34°57' E 136°39'0 0.0
2018-Feb-14 16:00N 34°57' E 136°39'0 0.0
2018-Feb-14 15:30N 34°57' E 136°39'0 0.0
2018-Feb-14 15:00N 34°57' E 136°39'0 0.0
2018-Feb-14 14:30N 34°57' E 136°39'0 0.0
2018-Feb-14 14:00N 34°57' E 136°39'0 0.0
2018-Feb-14 13:30N 34°57' E 136°39'0 0.0
2018-Feb-14 13:00N 34°57' E 136°39'0 0.0
2018-Feb-14 12:30N 34°57' E 136°39'0 0.0
2018-Feb-14 12:00N 34°57' E 136°39'0 0.0
2018-Feb-14 11:30N 34°57' E 136°39'0 0.0
2018-Feb-14 11:00N 34°57' E 136°39'0 0.0
2018-Feb-14 10:30N 34°57' E 136°39'0 0.0
2018-Feb-14 10:00N 34°57' E 136°39'0 0.0
2018-Feb-14 09:30N 34°57' E 136°39'0 0.0
2018-Feb-14 08:54N 34°57' E 136°39'0 0.0
2018-Feb-14 08:30N 34°57' E 136°39'0 0.0
2018-Feb-14 07:54N 34°57' E 136°39'0 0.0
2018-Feb-14 07:30N 34°57' E 136°39'0 0.0
2018-Feb-14 07:00N 34°57' E 136°39'0 0.0
2018-Feb-14 06:30N 34°57' E 136°39'0 0.0
2018-Feb-14 06:00N 34°57' E 136°39'0 0.0
2018-Feb-14 05:30N 34°57' E 136°39'0 0.0
2018-Feb-14 05:00N 34°57' E 136°39'0 0.0
2018-Feb-14 04:30N 34°57' E 136°39'0 0.0
2018-Feb-14 04:00N 34°57' E 136°39'0 0.0
2018-Feb-14 03:30N 34°57' E 136°39'0 0.0
2018-Feb-14 03:00N 34°57' E 136°39'0 0.0
2018-Feb-14 02:30N 34°57' E 136°39'0 0.0
2018-Feb-14 02:00N 34°57' E 136°39'0 0.0
2018-Feb-14 01:27N 34°57' E 136°39'0 0.0
2018-Feb-14 01:00N 34°57' E 136°39'0 0.0
2018-Feb-14 00:30N 34°57' E 136°39'0 0.0
2018-Feb-14 00:00N 34°57' E 136°39'0 0.0
2018-Feb-13 23:30N 34°57' E 136°39'0 0.0
2018-Feb-13 23:00N 34°57' E 136°39'0 0.0
2018-Feb-13 22:30N 34°57' E 136°39'0 0.0
2018-Feb-13 22:00N 34°57' E 136°39'0 0.0
2018-Feb-13 21:30N 34°57' E 136°39'0 0.0
2018-Feb-13 21:00N 34°57' E 136°39'0 0.0
2018-Feb-13 20:30N 34°57' E 136°39'0 0.0
2018-Feb-13 20:00N 34°57' E 136°39'0 0.0
2018-Feb-13 19:30N 34°57' E 136°39'0 0.0
2018-Feb-13 19:00N 34°57' E 136°39'0 0.0
2018-Feb-13 18:30N 34°57' E 136°39'0 0.0
2018-Feb-13 18:00N 34°57' E 136°39'0 0.0
2018-Feb-13 17:30N 34°57' E 136°39'0 0.0
2018-Feb-13 17:00N 34°57' E 136°39'0 0.0
2018-Feb-13 16:30N 34°57' E 136°39'0 0.0
2018-Feb-13 16:00N 34°57' E 136°39'0 0.0
2018-Feb-13 15:30N 34°57' E 136°39'0 0.0
2018-Feb-13 15:00N 34°57' E 136°39'0 0.0
2018-Feb-13 14:30N 34°57' E 136°39'0 0.0
2018-Feb-13 14:00N 34°57' E 136°39'0 0.0
2018-Feb-13 13:30N 34°57' E 136°39'0 0.0
2018-Feb-13 13:00N 34°57' E 136°39'0 0.0
2018-Feb-13 12:30N 34°57' E 136°39'0 0.0
2018-Feb-13 12:00N 34°57' E 136°39'0 0.0
2018-Feb-13 11:30N 34°57' E 136°39'0 0.0
2018-Feb-13 11:00N 34°57' E 136°39'0 0.0
2018-Feb-13 10:30N 34°57' E 136°39'0 0.0
2018-Feb-13 10:00N 34°57' E 136°39'0 0.0
2018-Feb-13 09:30N 34°57' E 136°39'0 0.0
2018-Feb-13 09:00N 34°57' E 136°39'0 0.0
2018-Feb-13 08:30N 34°57' E 136°39'0 0.0
2018-Feb-13 08:00N 34°57' E 136°39'0 0.0
2018-Feb-13 07:30N 34°57' E 136°39'0 0.0
2018-Feb-13 07:00N 34°57' E 136°39'0 0.0
2018-Feb-13 06:27N 34°57' E 136°39'0 0.0
2018-Feb-13 06:00N 34°57' E 136°39'0 0.0
2018-Feb-13 05:30N 34°57' E 136°39'0 0.0
2018-Feb-13 05:00N 34°57' E 136°39'0 0.0
2018-Feb-13 04:27N 34°57' E 136°39'0 0.0
2018-Feb-13 04:00N 34°57' E 136°39'0 0.0
2018-Feb-13 03:30N 34°57' E 136°39'0 0.0
2018-Feb-13 03:00N 34°57' E 136°39'0 0.0
2018-Feb-13 02:30N 34°57' E 136°39'0 0.0
2018-Feb-13 02:00N 34°57' E 136°39'0 0.0
2018-Feb-13 01:30N 34°57' E 136°39'0 0.0
2018-Feb-13 01:00N 34°57' E 136°39'0 0.0
2018-Feb-13 00:30N 34°57' E 136°39'0 0.0
2018-Feb-13 00:00N 34°57' E 136°39'0 0.0
2018-Feb-12 23:30N 34°57' E 136°39'0 0.0
2018-Feb-12 23:00N 34°57' E 136°39'0 0.0
2018-Feb-12 22:30N 34°57' E 136°39'0 0.0
2018-Feb-12 22:00N 34°57' E 136°39'0 0.0
2018-Feb-12 21:30N 34°57' E 136°39'0 0.0
2018-Feb-12 21:00N 34°57' E 136°39'0 0.0
2018-Feb-12 20:30N 34°57' E 136°39'0 0.0
2018-Feb-12 20:00N 34°57' E 136°39'0 0.0
2018-Feb-12 19:30N 34°57' E 136°39'0 0.0
2018-Feb-12 19:00N 34°57' E 136°39'0 0.0
2018-Feb-12 18:30N 34°57' E 136°39'0 0.0
2018-Feb-12 18:00N 34°57' E 136°39'0 0.0
2018-Feb-12 17:30N 34°57' E 136°39'0 0.0
2018-Feb-12 17:00N 34°57' E 136°39'0 0.0
2018-Feb-12 16:30N 34°57' E 136°39'0 0.0
2018-Feb-12 16:00N 34°57' E 136°39'0 0.0
2018-Feb-12 15:18N 34°57' E 136°39'0 0.0
2018-Feb-12 15:00N 34°57' E 136°39'0 0.0
2018-Feb-12 14:30N 34°57' E 136°39'0 0.0
2018-Feb-12 14:00N 34°57' E 136°39'0 0.0
2018-Feb-12 13:30N 34°57' E 136°39'0 0.0
2018-Feb-12 13:00N 34°57' E 136°39'0 0.0
2018-Feb-12 12:30N 34°57' E 136°39'0 0.0
2018-Feb-12 12:00N 34°57' E 136°39'0 0.0
2018-Feb-12 11:27N 34°57' E 136°39'  

Dump ship's entire track history